Time;durP1;ratioP1;P1;durP2;ratioP2;P2;SDS_P1;SDS_P2;PMS_P1;PMS_P2;Temp;Humidity;BMP_temperature;BMP_pressure;BME280_temperature;BME280_humidity;BME280_pressure;Samples;Min_cycle;Max_cycle;Signal;HPM_P1;HPM_P2
2022/02/22 00:00:14;;;;;;;19.42;4.53;;;;;;;9.14;89.66;100944.38;5045863;28;20378;-90
2022/02/22 00:02:43;;;;;;;14.75;3.40;;;;;;;9.16;89.70;100933.81;5025118;28;20045;-91
2022/02/22 00:05:12;;;;;;;17.67;3.40;;;;;;;9.18;89.83;100919.69;5011178;28;20096;-92
2022/02/22 00:07:43;;;;;;;12.20;3.13;;;;;;;9.20;89.66;100928.44;5027016;28;20041;-90
2022/02/22 00:10:11;;;;;;;25.00;6.88;;;;;;;9.21;90.10;100930.09;5008549;28;20056;-92
2022/02/22 00:12:44;;;;;;;14.82;3.47;;;;;;;9.24;89.86;100915.59;5026770;28;20068;-90
2022/02/22 00:15:11;;;;;;;15.93;4.07;;;;;;;9.25;89.86;100906.16;5025090;28;20172;-91
2022/02/22 00:17:40;;;;;;;14.27;3.72;;;;;;;9.27;90.07;100897.53;5024939;28;20041;-90
2022/02/22 00:20:10;;;;;;;15.48;3.28;;;;;;;9.28;90.27;100899.16;5041758;28;20080;-87
2022/02/22 00:22:37;;;;;;;22.75;3.67;;;;;;;9.31;90.44;100893.78;5028124;28;20038;-88
2022/02/22 00:25:06;;;;;;;20.42;4.07;;;;;;;9.34;90.38;100887.59;5040623;28;20509;-87
2022/02/22 00:27:33;;;;;;;17.85;5.30;;;;;;;9.36;90.75;100878.97;5026420;28;20060;-88
2022/02/22 00:30:00;;;;;;;20.88;4.00;;;;;;;9.39;90.42;100878.31;5025359;28;20061;-86
2022/02/22 00:32:27;;;;;;;13.02;3.72;;;;;;;9.38;90.20;100871.97;5042894;28;20044;-87
2022/02/22 00:34:54;;;;;;;20.45;3.50;;;;;;;9.40;90.78;100866.91;5026921;28;20064;-87
2022/02/22 00:37:21;;;;;;;17.83;3.53;;;;;;;9.42;90.49;100866.59;5026777;28;20072;-87
2022/02/22 00:39:48;;;;;;;15.68;3.58;;;;;;;9.44;90.55;100853.25;5025162;28;20057;-87
2022/02/22 00:42:17;;;;;;;20.65;4.82;;;;;;;9.45;90.60;100852.88;5005416;28;20053;-88
2022/02/22 00:44:44;;;;;;;14.70;3.45;;;;;;;9.45;90.51;100841.06;5027203;28;20055;-85
2022/02/22 00:47:11;;;;;;;25.33;4.68;;;;;;;9.47;90.62;100852.56;5038574;28;20755;-86
2022/02/22 00:49:39;;;;;;;19.17;4.00;;;;;;;9.51;90.53;100854.31;5042333;28;20041;-84
2022/02/22 00:52:06;;;;;;;17.83;4.35;;;;;;;9.54;90.95;100845.38;5026415;28;20037;-87
2022/02/22 00:54:33;;;;;;;26.52;4.70;;;;;;;9.57;90.61;100847.47;5026286;28;20141;-86
2022/02/22 00:57:00;;;;;;;27.30;4.68;;;;;;;9.59;90.41;100838.81;5025988;28;20042;-85
2022/02/22 00:59:27;;;;;;;18.88;3.78;;;;;;;9.59;90.36;100836.06;5043001;28;20052;-86
2022/02/22 01:01:54;;;;;;;24.30;3.83;;;;;;;9.61;90.30;100845.63;5026327;28;20049;-88
2022/02/22 01:04:21;;;;;;;28.50;5.20;;;;;;;9.61;90.33;100820.75;5025152;28;20043;-87
2022/02/22 01:06:48;;;;;;;24.85;5.20;;;;;;;9.64;90.21;100820.09;5025739;28;20041;-87
2022/02/22 01:09:15;;;;;;;19.42;6.03;;;;;;;9.65;90.11;100805.13;5009411;28;20068;-88
2022/02/22 01:11:43;;;;;;;19.42;4.32;;;;;;;9.67;90.14;100808.34;5026263;28;20045;-87
2022/02/22 01:14:11;;;;;;;10.07;3.30;;;;;;;9.68;89.85;100787.06;5024283;28;20448;-86
2022/02/22 01:16:43;;;;;;;24.30;4.47;;;;;;;9.68;89.66;100781.53;5041131;28;20540;-87
2022/02/22 01:19:10;;;;;;;27.02;3.05;;;;;;;9.68;89.90;100773.22;5025020;28;20037;-87
2022/02/22 01:21:37;;;;;;;14.20;3.67;;;;;;;9.68;89.52;100764.94;5042542;28;20052;-88
2022/02/22 01:24:05;;;;;;;23.05;5.47;;;;;;;9.69;89.59;100772.88;5025164;28;20068;-86
2022/02/22 01:26:33;;;;;;;26.98;4.07;;;;;;;9.72;89.39;100766.69;5025059;28;20037;-87
2022/02/22 01:29:02;;;;;;;36.25;4.68;;;;;;;9.74;88.97;100753.31;5022633;28;20847;-88
2022/02/22 01:31:30;;;;;;;17.13;3.75;;;;;;;9.75;88.91;100768.78;5022742;28;20050;-87
2022/02/22 01:33:59;;;;;;;19.83;4.32;;;;;;;9.79;88.65;100760.63;5024228;28;20248;-87
2022/02/22 01:36:27;;;;;;;17.40;3.50;;;;;;;9.80;88.46;100748.38;5026624;28;20044;-86
2022/02/22 01:38:54;;;;;;;20.05;3.88;;;;;;;9.82;88.20;100743.34;5039597;28;20060;-88
2022/02/22 01:41:23;;;;;;;13.52;3.30;;;;;;;9.84;88.05;100759.59;5041759;28;20362;-88
2022/02/22 01:43:51;;;;;;;17.10;3.38;;;;;;;9.82;88.09;100755.19;5041761;28;20056;-87
2022/02/22 01:46:18;;;;;;;17.95;3.60;;;;;;;9.82;87.66;100744.13;5039843;28;20045;-88
2022/02/22 01:48:45;;;;;;;21.60;4.07;;;;;;;9.82;87.74;100748.88;5039729;28;20048;-87
2022/02/22 01:51:12;;;;;;;13.65;3.92;;;;;;;9.83;87.70;100739.41;5021744;28;20732;-87
2022/02/22 01:53:39;;;;;;;14.25;3.50;;;;;;;9.86;87.52;100726.88;5027441;28;20053;-88
2022/02/22 01:56:11;;;;;;;15.73;5.13;;;;;;;9.85;87.26;100730.81;5025936;28;20060;-85
2022/02/22 01:58:43;;;;;;;15.43;4.72;;;;;;;9.84;87.12;100721.69;5005844;28;20050;-86
2022/02/22 02:01:10;;;;;;;26.42;4.85;;;;;;;9.86;86.87;100722.16;5024863;28;21093;-88
2022/02/22 02:03:37;;;;;;;14.23;3.05;;;;;;;9.86;86.66;100713.84;5023760;28;20144;-86
2022/02/22 02:06:05;;;;;;;22.48;3.50;;;;;;;9.87;86.65;100707.19;5026727;28;20046;-88
2022/02/22 02:08:32;;;;;;;15.85;2.60;;;;;;;9.87;86.38;100700.84;5022719;28;20047;-87
2022/02/22 02:11:00;;;;;;;15.73;3.30;;;;;;;9.87;86.59;100692.56;5037004;28;20046;-86
2022/02/22 02:13:28;;;;;;;18.05;3.78;;;;;;;9.86;86.17;100691.72;5024846;28;20053;-87
2022/02/22 02:15:55;;;;;;;12.40;3.45;;;;;;;9.86;85.72;100677.91;5023662;28;20050;-88
2022/02/22 02:18:24;;;;;;;21.48;6.10;;;;;;;9.87;85.96;100667.66;5006331;28;20075;-88
2022/02/22 02:20:51;;;;;;;16.63;3.78;;;;;;;9.87;85.59;100685.06;5025079;28;20400;-88
2022/02/22 02:23:18;;;;;;;12.18;2.88;;;;;;;9.85;85.63;100665.22;5008332;28;20049;-88
2022/02/22 02:25:47;;;;;;;13.50;3.08;;;;;;;9.85;85.20;100676.28;5023844;28;20053;-88
2022/02/22 02:28:14;;;;;;;14.05;3.33;;;;;;;9.86;85.21;100663.28;5005999;28;20069;-89
2022/02/22 02:30:42;;;;;;;16.20;3.63;;;;;;;9.86;84.87;100661.31;5024286;28;20567;-86
2022/02/22 02:33:09;;;;;;;12.43;3.00;;;;;;;9.86;84.82;100646.69;5024555;28;20045;-88
2022/02/22 02:35:38;;;;;;;21.35;5.57;;;;;;;9.86;84.38;100639.19;5026001;28;20408;-87
2022/02/22 02:38:05;;;;;;;14.52;4.05;;;;;;;9.88;84.12;100636.88;5024270;28;20045;-87
2022/02/22 02:40:40;;;;;;;15.50;3.42;;;;;;;9.87;83.92;100631.72;5024090;28;20134;-88
2022/02/22 02:43:07;;;;;;;14.75;3.10;;;;;;;9.87;83.55;100628.94;5040086;28;20420;-87
2022/02/22 02:45:35;;;;;;;18.52;3.28;;;;;;;9.88;83.46;100614.78;5022753;28;20041;-88
2022/02/22 02:48:02;;;;;;;15.70;3.20;;;;;;;9.90;83.09;100617.22;5038964;28;20895;-87
2022/02/22 02:50:29;;;;;;;13.30;3.55;;;;;;;9.90;82.76;100609.69;5023543;28;20052;-88
2022/02/22 02:52:56;;;;;;;12.13;2.65;;;;;;;9.91;82.58;100608.56;5007227;28;20049;-85
2022/02/22 02:55:25;;;;;;;18.35;4.53;;;;;;;9.88;82.29;100581.59;5006807;28;20049;-86
2022/02/22 02:57:53;;;;;;;14.90;3.63;;;;;;;9.89;82.19;100587.94;5021692;28;20049;-86
2022/02/22 03:00:20;;;;;;;14.02;4.28;;;;;;;9.90;81.80;100573.75;5006009;28;20132;-87
2022/02/22 03:02:47;;;;;;;13.60;3.05;;;;;;;9.89;81.78;100557.50;5022570;28;20061;-86
2022/02/22 03:05:14;;;;;;;12.00;2.47;;;;;;;9.85;81.50;100568.44;5007513;28;20116;-85
2022/02/22 03:07:41;;;;;;;10.90;2.80;;;;;;;9.87;81.56;100563.41;5039982;28;20513;-87
2022/02/22 03:10:08;;;;;;;16.48;3.25;;;;;;;9.87;81.46;100535.75;5040469;28;20049;-87
2022/02/22 03:12:35;;;;;;;10.50;2.67;;;;;;;9.88;81.22;100523.53;5022911;28;20051;-86
2022/02/22 03:15:05;;;;;;;9.82;2.70;;;;;;;9.88;81.23;100525.47;5022966;28;20904;-86
2022/02/22 03:17:33;;;;;;;11.70;4.18;;;;;;;9.87;81.21;100513.63;5039548;28;20658;-87
2022/02/22 03:20:00;;;;;;;15.02;4.43;;;;;;;9.87;80.95;100512.81;5023259;28;20132;-87
2022/02/22 03:22:27;;;;;;;12.60;2.70;;;;;;;9.87;80.67;100513.63;5019131;28;20045;-88
2022/02/22 03:24:54;;;;;;;17.85;2.85;;;;;;;9.89;80.77;100521.56;5024125;28;20072;-87
2022/02/22 03:27:21;;;;;;;12.57;3.05;;;;;;;9.89;80.69;100500.25;5006146;28;20858;-88
2022/02/22 03:29:48;;;;;;;22.23;4.93;;;;;;;9.89;80.42;100505.78;5022300;28;20051;-88
2022/02/22 03:32:15;;;;;;;23.00;4.50;;;;;;;9.91;80.21;100491.59;5038685;28;20103;-88
2022/02/22 03:34:42;;;;;;;20.10;3.17;;;;;;;9.92;80.03;100482.16;5023654;28;20045;-87
2022/02/22 03:37:10;;;;;;;18.48;3.22;;;;;;;9.91;80.03;100478.59;5023790;28;20048;-86
2022/02/22 03:39:37;;;;;;;14.50;3.20;;;;;;;9.89;79.92;100461.53;5038974;28;20124;-88
2022/02/22 03:42:04;;;;;;;11.85;3.17;;;;;;;9.90;79.84;100479.72;5024924;28;20103;-87
2022/02/22 03:44:31;;;;;;;15.23;3.47;;;;;;;9.90;79.84;100452.06;5007456;28;20127;-87
2022/02/22 03:46:58;;;;;;;15.00;4.25;;;;;;;9.91;79.90;100452.88;5038226;28;20045;-87
2022/02/22 03:49:25;;;;;;;13.32;3.65;;;;;;;9.91;79.55;100426.06;4989322;28;20519;-88
2022/02/22 03:51:52;;;;;;;27.42;4.90;;;;;;;9.92;79.36;100429.63;5025186;28;20680;-88
2022/02/22 03:54:19;;;;;;;20.35;3.70;;;;;;;9.91;79.71;100415.00;5023293;28;20111;-89
2022/02/22 03:56:46;;;;;;;25.35;6.82;;;;;;;9.90;79.46;100407.06;5039404;28;20055;-87
2022/02/22 03:59:13;;;;;;;11.05;2.60;;;;;;;9.90;79.36;100396.00;5020173;28;20069;-84
2022/02/22 04:01:42;;;;;;;20.20;3.05;;;;;;;9.91;79.17;100403.13;5022911;28;20052;-88
2022/02/22 04:04:09;;;;;;;19.35;3.15;;;;;;;9.91;79.22;100392.88;5023540;28;20057;-87
2022/02/22 04:06:36;;;;;;;22.42;3.67;;;;;;;9.90;79.34;100371.88;5021397;28;20068;-89
2022/02/22 04:09:03;;;;;;;13.18;3.13;;;;;;;9.89;79.11;100352.91;5006019;28;20056;-88
2022/02/22 04:11:30;;;;;;;13.55;2.97;;;;;;;9.87;79.40;100352.44;5040078;28;20068;-88
2022/02/22 04:13:56;;;;;;;9.90;3.00;;;;;;;9.87;79.32;100335.84;5006335;28;20136;-86
2022/02/22 04:16:23;;;;;;;15.93;4.10;;;;;;;9.88;79.14;100331.91;5021928;28;20099;-88
2022/02/22 04:18:50;;;;;;;17.75;3.33;;;;;;;9.89;79.06;100323.28;5022473;28;20045;-87
2022/02/22 04:21:17;;;;;;;14.00;2.75;;;;;;;9.88;78.72;100318.09;5021569;28;20045;-87
2022/02/22 04:23:44;;;;;;;10.40;2.95;;;;;;;9.89;79.14;100305.88;5022785;28;20042;-90
2022/02/22 04:26:11;;;;;;;19.35;3.42;;;;;;;9.87;78.91;100297.97;5023516;28;20103;-88
2022/02/22 04:28:39;;;;;;;13.38;3.33;;;;;;;9.88;78.90;100291.25;5022854;28;20056;-87
2022/02/22 04:31:06;;;;;;;14.02;2.90;;;;;;;9.88;78.53;100287.69;5039585;28;20119;-88
2022/02/22 04:33:33;;;;;;;16.13;3.15;;;;;;;9.92;78.42;100269.25;5022724;28;20052;-88
2022/02/22 04:36:00;;;;;;;20.10;3.83;;;;;;;9.94;78.46;100270.50;5021828;28;20054;-85
2022/02/22 04:38:26;;;;;;;14.60;3.50;;;;;;;9.95;78.28;100272.13;4988910;28;20458;-87
2022/02/22 04:40:54;;;;;;;26.90;3.78;;;;;;;9.98;78.43;100265.84;5022453;28;20104;-87
2022/02/22 04:43:20;;;;;;;15.93;3.05;;;;;;;9.99;78.26;100253.66;5023626;28;20120;-87
2022/02/22 04:45:47;;;;;;;17.17;5.07;;;;;;;10.00;78.14;100246.97;5025287;28;20049;-86
2022/02/22 04:48:14;;;;;;;19.80;5.25;;;;;;;9.99;78.09;100239.81;5027995;28;20138;-89
2022/02/22 04:50:41;;;;;;;15.30;3.72;;;;;;;10.01;78.22;100247.75;5042887;28;20052;-88
2022/02/22 04:53:09;;;;;;;17.33;3.08;;;;;;;10.03;78.34;100243.50;5026155;28;20052;-88
2022/02/22 04:55:37;;;;;;;26.65;3.53;;;;;;;10.05;78.40;100249.47;5041114;28;20048;-88
2022/02/22 04:58:04;;;;;;;21.88;4.28;;;;;;;10.07;78.49;100229.75;5026369;28;20040;-87
2022/02/22 05:00:31;;;;;;;18.20;4.32;;;;;;;10.12;78.15;100237.78;5008829;28;20160;-88
2022/02/22 05:02:59;;;;;;;16.73;3.22;;;;;;;10.13;78.38;100231.94;5026644;28;20081;-87
2022/02/22 05:05:26;;;;;;;11.80;4.47;;;;;;;10.16;78.42;100222.94;5025379;28;20107;-88
2022/02/22 05:07:58;;;;;;;16.95;3.50;;;;;;;10.18;78.27;100215.09;5007387;28;20057;-88
2022/02/22 05:10:25;;;;;;;12.93;3.55;;;;;;;10.20;78.42;100207.22;5024857;28;20464;-88
2022/02/22 05:12:52;;;;;;;16.45;4.18;;;;;;;10.20;78.48;100207.22;5025505;28;20080;-88
2022/02/22 05:15:19;;;;;;;11.98;3.05;;;;;;;10.24;78.49;100190.75;5024950;28;20041;-88
2022/02/22 05:17:46;;;;;;;21.15;3.92;;;;;;;10.25;78.49;100215.28;5008883;28;20171;-86
2022/02/22 05:20:13;;;;;;;14.45;2.95;;;;;;;10.28;78.56;100214.56;5040358;28;20049;-88
2022/02/22 05:22:42;;;;;;;21.83;5.78;;;;;;;10.29;78.61;100205.13;5026550;28;20830;-88
2022/02/22 05:25:11;;;;;;;18.08;4.03;;;;;;;10.28;78.75;100203.50;5009126;28;20049;-87
2022/02/22 05:27:39;;;;;;;16.00;3.58;;;;;;;10.23;79.12;100214.81;5006939;28;20879;-86
2022/02/22 05:30:08;;;;;;;18.00;4.03;;;;;;;10.22;79.53;100188.31;5008586;28;20076;-89
2022/02/22 05:32:35;;;;;;;20.65;4.93;;;;;;;10.21;80.14;100180.38;5024252;28;20130;-84
2022/02/22 05:35:03;;;;;;;17.00;3.67;;;;;;;10.15;80.51;100188.13;5042137;28;20057;-89
2022/02/22 05:37:31;;;;;;;18.13;4.00;;;;;;;10.14;80.91;100175.44;5025751;28;20107;-87
2022/02/22 05:39:58;;;;;;;11.70;3.45;;;;;;;10.12;81.10;100161.19;5025907;28;20120;-88
2022/02/22 05:42:26;;;;;;;17.80;3.80;;;;;;;10.12;80.93;100166.72;5025250;28;20131;-88
2022/02/22 05:44:53;;;;;;;20.33;3.42;;;;;;;10.09;81.15;100155.53;5009412;28;20068;-87
2022/02/22 05:47:20;;;;;;;25.42;3.72;;;;;;;10.06;81.29;100181.94;5038675;28;20064;-92
2022/02/22 05:49:47;;;;;;;27.38;3.97;;;;;;;10.04;81.68;100175.97;5041231;28;20045;-84
2022/02/22 05:52:15;;;;;;;16.63;3.78;;;;;;;10.06;81.88;100181.94;5025839;28;20107;-84
2022/02/22 05:54:43;;;;;;;22.02;5.97;;;;;;;10.07;82.16;100177.22;5036987;28;20049;-84
2022/02/22 05:57:10;;;;;;;21.25;3.60;;;;;;;10.05;82.57;100169.28;5020954;28;20099;-84
2022/02/22 05:59:37;;;;;;;13.70;3.60;;;;;;;10.03;82.85;100179.91;5025285;28;20072;-85
2022/02/22 06:02:05;;;;;;;14.07;2.90;;;;;;;10.04;82.82;100172.38;5006472;28;20055;-84
2022/02/22 06:04:34;;;;;;;19.35;2.78;;;;;;;10.03;83.66;100157.78;5008335;28;20615;-85
2022/02/22 06:07:01;;;;;;;22.77;4.50;;;;;;;10.00;83.97;100165.97;5023155;28;20145;-85
2022/02/22 06:09:28;;;;;;;18.38;4.30;;;;;;;9.95;85.08;100172.56;5025132;28;20045;-83
2022/02/22 06:11:55;;;;;;;16.80;3.50;;;;;;;9.90;85.63;100153.44;5039539;28;21284;-88
2022/02/22 06:14:28;;;;;;;20.20;4.05;;;;;;;9.86;86.19;100152.56;5009043;28;20077;-83
2022/02/22 06:16:56;;;;;;;19.52;5.38;;;;;;;9.83;87.13;100169.84;5007327;28;20145;-83
2022/02/22 06:19:26;;;;;;;17.63;5.38;;;;;;;9.78;87.53;100153.53;5022942;28;20049;-82
2022/02/22 06:21:53;;;;;;;18.15;3.67;;;;;;;9.78;87.71;100164.59;5022299;28;20059;-82
2022/02/22 06:24:21;;;;;;;15.50;3.90;;;;;;;9.76;87.98;100155.84;5008221;28;20053;-82
2022/02/22 06:26:48;;;;;;;17.98;4.55;;;;;;;9.76;88.25;100159.44;5005498;28;21063;-81
2022/02/22 06:29:15;;;;;;;19.25;5.18;;;;;;;9.77;88.63;100165.75;5023480;28;20063;-83
2022/02/22 06:31:42;;;;;;;17.70;3.85;;;;;;;9.78;89.02;100184.75;5037541;28;20497;-83
2022/02/22 06:34:09;;;;;;;30.02;4.38;;;;;;;9.78;89.28;100184.75;5023836;28;20050;-84
2022/02/22 06:36:36;;;;;;;23.23;3.88;;;;;;;9.78;89.62;100179.22;5022886;28;20056;-82
2022/02/22 06:39:03;;;;;;;17.85;3.83;;;;;;;9.79;90.05;100205.69;5007568;28;20052;-83
2022/02/22 06:41:30;;;;;;;23.90;4.72;;;;;;;9.80;89.66;100214.78;5022692;28;20073;-83
2022/02/22 06:43:57;;;;;;;21.10;5.15;;;;;;;9.78;90.57;100217.13;5024826;28;20041;-84
2022/02/22 06:46:28;;;;;;;17.63;4.03;;;;;;;9.77;91.02;100229.31;5007116;28;20120;-84
2022/02/22 06:48:55;;;;;;;17.42;3.45;;;;;;;9.73;91.90;100358.34;5023997;28;20045;-83
2022/02/22 06:51:22;;;;;;;11.60;2.78;;;;;;;9.65;92.05;100362.06;5005245;28;20049;-84
2022/02/22 06:53:51;;;;;;;3.05;0.70;;;;;;;9.45;90.93;100401.69;5023087;28;20042;-84
2022/02/22 06:56:20;;;;;;;7.70;2.15;;;;;;;9.24;90.29;100404.53;5038232;28;20087;-84
2022/02/22 06:58:48;;;;;;;4.93;0.82;;;;;;;9.09;90.13;100433.66;5019133;28;20060;-83
2022/02/22 07:01:15;;;;;;;1.63;0.98;;;;;;;8.87;89.62;100442.34;5021686;28;20041;-83
2022/02/22 07:03:42;;;;;;;1.13;0.50;;;;;;;8.72;89.85;100456.78;5005715;28;20516;-83
2022/02/22 07:06:11;;;;;;;3.65;0.47;;;;;;;8.62;89.89;100490.34;5023046;28;20124;-84
2022/02/22 07:08:38;;;;;;;3.17;0.75;;;;;;;8.56;89.85;100481.44;5037346;28;20049;-84
2022/02/22 07:11:06;;;;;;;2.38;0.57;;;;;;;8.51;89.90;100481.66;5040168;28;20041;-83
2022/02/22 07:13:33;;;;;;;0.88;0.43;;;;;;;8.46;89.45;100464.50;5023216;28;20037;-84
2022/02/22 07:16:00;;;;;;;0.88;0.22;;;;;;;8.37;89.40;100466.53;5022654;28;20041;-84
2022/02/22 07:18:27;;;;;;;1.27;0.35;;;;;;;8.29;89.23;100464.63;5023058;28;20057;-83
2022/02/22 07:20:54;;;;;;;4.95;0.40;;;;;;;8.25;89.13;100481.03;5004739;28;20056;-83
2022/02/22 07:23:21;;;;;;;1.42;0.40;;;;;;;8.21;89.10;100471.00;5022704;28;20041;-84
2022/02/22 07:25:48;;;;;;;2.50;0.45;;;;;;;8.18;88.99;100466.19;5005884;28;20038;-84
2022/02/22 07:28:15;;;;;;;1.17;0.70;;;;;;;8.16;88.78;100463.72;5038584;28;20634;-84
2022/02/22 07:30:44;;;;;;;1.40;0.30;;;;;;;8.10;88.50;100467.03;5037993;28;20068;-83
2022/02/22 07:33:12;;;;;;;1.08;0.30;;;;;;;8.13;88.57;100471.88;5020750;28;20072;-83
2022/02/22 07:35:39;;;;;;;6.63;0.60;;;;;;;8.13;88.51;100488.44;5004391;28;20049;-83
2022/02/22 07:38:06;;;;;;;0.63;0.35;;;;;;;8.10;88.14;100500.91;5021997;28;20049;-87
2022/02/22 07:40:38;;;;;;;1.63;0.63;;;;;;;8.08;87.94;100491.34;5022497;28;20056;-84
2022/02/22 07:43:05;;;;;;;2.03;0.57;;;;;;;8.04;88.02;100512.47;5022382;28;20045;-85
2022/02/22 07:45:32;;;;;;;4.25;0.95;;;;;;;7.98;87.91;100520.94;5038362;28;20064;-85
2022/02/22 07:48:00;;;;;;;2.42;0.40;;;;;;;7.97;87.64;100524.84;5020619;28;20049;-84
2022/02/22 07:50:28;;;;;;;1.85;0.70;;;;;;;7.96;87.75;100531.50;5022292;28;20052;-84
2022/02/22 07:52:55;;;;;;;1.20;0.50;;;;;;;7.96;87.82;100527.94;5022543;28;20045;-84
2022/02/22 07:55:22;;;;;;;3.97;0.60;;;;;;;7.93;87.43;100518.38;5021829;28;20120;-84
2022/02/22 07:57:49;;;;;;;1.63;0.70;;;;;;;7.94;87.56;100514.47;5039577;28;20092;-83
2022/02/22 08:00:16;;;;;;;8.55;0.90;;;;;;;7.90;87.43;100535.59;5006799;28;20079;-83
2022/02/22 08:02:47;;;;;;;2.65;0.77;;;;;;;7.88;87.26;100526.84;5021701;28;20080;-83
2022/02/22 08:05:14;;;;;;;3.90;1.00;;;;;;;7.81;87.29;100526.53;5022152;28;20051;-83
2022/02/22 08:07:41;;;;;;;3.92;1.20;;;;;;;7.77;86.94;100524.78;5006847;28;20053;-83
2022/02/22 08:10:09;;;;;;;3.15;1.13;;;;;;;7.71;86.81;100521.41;5022986;28;20148;-83
2022/02/22 08:12:36;;;;;;;6.35;0.98;;;;;;;7.62;86.61;100526.16;5022317;28;20050;-83
2022/02/22 08:15:05;;;;;;;6.88;1.40;;;;;;;7.55;86.74;100528.63;5036682;28;20044;-83
2022/02/22 08:17:31;;;;;;;5.90;1.13;;;;;;;7.55;86.73;100538.81;5034325;28;20054;-83
2022/02/22 08:19:59;;;;;;;10.02;1.45;;;;;;;7.50;86.63;100536.25;5009938;28;20565;-82
2022/02/22 08:22:27;;;;;;;5.60;1.75;;;;;;;7.42;86.78;100526.88;5042777;28;20048;-82
2022/02/22 08:24:54;;;;;;;10.23;1.63;;;;;;;7.35;87.09;100543.13;5008973;28;20065;-83
2022/02/22 08:27:21;;;;;;;18.25;1.83;;;;;;;7.34;86.83;100552.50;5025117;28;20513;-83
2022/02/22 08:29:48;;;;;;;10.50;2.25;;;;;;;7.32;87.15;100561.09;5040557;28;20092;-83
2022/02/22 08:32:15;;;;;;;3.85;2.30;;;;;;;7.30;87.05;100560.63;5009577;28;20572;-84
2022/02/22 08:34:43;;;;;;;8.00;1.77;;;;;;;7.29;87.14;100556.25;5026149;28;20053;-83
2022/02/22 08:37:15;;;;;;;6.78;1.83;;;;;;;7.29;87.22;100563.69;5010344;28;20167;-83
2022/02/22 08:39:47;;;;;;;6.95;1.48;;;;;;;7.28;87.40;100573.88;5025704;28;20047;-83
2022/02/22 08:42:14;;;;;;;7.32;1.48;;;;;;;7.35;87.14;100576.16;5024781;28;20041;-83
2022/02/22 08:44:41;;;;;;;8.40;1.30;;;;;;;7.33;87.30;100570.19;5042678;28;20045;-83
2022/02/22 08:47:08;;;;;;;4.75;1.40;;;;;;;7.31;87.54;100583.44;5024617;28;20045;-83
2022/02/22 08:49:36;;;;;;;8.60;2.03;;;;;;;7.31;87.40;100583.44;5005279;28;20099;-83
2022/02/22 08:52:03;;;;;;;9.45;2.83;;;;;;;7.31;87.60;100580.69;5025632;28;20095;-83
2022/02/22 08:54:47;;;;;;;10.68;2.08;;;;;;;7.39;87.19;100585.38;5009554;28;20451;-83
2022/02/22 08:57:14;;;;;;;9.93;1.88;;;;;;;7.48;87.34;100593.63;5042399;28;20056;-82
2022/02/22 08:59:41;;;;;;;10.75;1.80;;;;;;;7.50;87.19;100605.91;5025481;28;20049;-82
2022/02/22 09:02:08;;;;;;;8.25;1.90;;;;;;;7.49;87.11;100612.59;5025154;28;21155;-83
2022/02/22 09:04:35;;;;;;;8.15;1.75;;;;;;;7.53;87.27;100616.28;5041935;28;20053;-83
2022/02/22 09:07:03;;;;;;;8.50;1.75;;;;;;;7.65;87.37;100616.41;5025963;28;20076;-83
2022/02/22 09:09:30;;;;;;;13.57;1.58;;;;;;;7.70;86.98;100623.72;5008185;28;20052;-84
2022/02/22 09:11:57;;;;;;;8.63;2.10;;;;;;;7.73;86.95;100626.59;5009597;28;20140;-83
2022/02/22 09:14:24;;;;;;;10.57;2.53;;;;;;;7.79;86.96;100629.97;5008792;28;20111;-85
2022/02/22 09:16:51;;;;;;;10.65;2.03;;;;;;;7.85;86.77;100643.28;5009287;28;20057;-83
2022/02/22 09:19:18;;;;;;;8.65;2.70;;;;;;;7.93;86.70;100630.59;5008616;28;20064;-83
2022/02/22 09:21:46;;;;;;;9.60;2.25;;;;;;;8.03;86.51;100640.44;5041221;28;20049;-80
2022/02/22 09:24:13;;;;;;;15.73;2.58;;;;;;;8.10;86.32;100635.22;5008703;28;20049;-83
2022/02/22 09:26:40;;;;;;;11.80;2.42;;;;;;;8.13;85.99;100662.16;5024996;28;20045;-83
2022/02/22 09:29:08;;;;;;;8.50;2.17;;;;;;;8.21;85.85;100653.81;5039895;28;20053;-83
2022/02/22 09:31:36;;;;;;;11.70;2.70;;;;;;;8.29;85.91;100650.25;5024923;28;20041;-83
2022/02/22 09:34:03;;;;;;;14.50;2.20;;;;;;;8.29;85.09;100665.97;5025951;28;20709;-83
2022/02/22 09:36:30;;;;;;;26.08;3.63;;;;;;;8.32;84.35;100662.56;5025741;28;20096;-83
2022/02/22 09:38:57;;;;;;;12.82;3.00;;;;;;;8.35;84.76;100667.41;5024860;28;20115;-84
2022/02/22 09:41:24;;;;;;;12.15;2.53;;;;;;;8.41;84.65;100666.91;5041642;28;20049;-84
2022/02/22 09:43:51;;;;;;;21.88;3.60;;;;;;;8.36;84.05;100674.56;5009251;28;20057;-88
2022/02/22 09:46:21;;;;;;;9.77;1.90;;;;;;;8.35;84.33;100686.72;5009539;28;20512;-88
2022/02/22 09:48:50;;;;;;;26.38;4.80;;;;;;;8.37;83.83;100699.03;5026832;28;20224;-87
2022/02/22 09:51:17;;;;;;;20.63;4.10;;;;;;;8.55;84.29;100705.31;5026827;28;20046;-88
2022/02/22 09:53:44;;;;;;;15.18;4.15;;;;;;;8.63;84.04;100709.94;5026006;28;20068;-89
2022/02/22 09:56:15;;;;;;;24.77;4.20;;;;;;;8.61;84.19;100703.13;5026241;28;20116;-92
2022/02/22 09:58:42;;;;;;;16.65;4.97;;;;;;;8.58;84.45;100726.69;5024702;28;20072;-88
2022/02/22 10:01:09;;;;;;;20.63;4.30;;;;;;;8.57;84.55;100736.94;5025557;28;20091;-91
2022/02/22 10:03:37;;;;;;;13.60;2.45;;;;;;;8.56;84.29;100738.06;5025917;28;20045;-91
2022/02/22 10:06:04;;;;;;;14.95;4.00;;;;;;;8.47;83.60;100734.53;5042872;28;20117;-92
2022/02/22 10:08:38;;;;;;;17.98;3.63;;;;;;;8.49;83.80;100728.69;5026095;28;20046;-90
2022/02/22 10:11:10;;;;;;;16.63;3.90;;;;;;;8.45;82.81;100736.81;5009871;28;20390;-88
2022/02/22 10:13:37;;;;;;;20.33;4.03;;;;;;;8.41;81.67;100744.16;5041942;28;20041;-90
2022/02/22 10:16:12;;;;;;;8.90;1.88;;;;;;;8.33;80.64;100774.53;5008337;28;20048;-90
2022/02/22 10:18:50;;;;;;;8.48;2.55;;;;;;;8.15;80.52;100768.22;5042773;28;20053;-94
2022/02/22 10:21:22;;;;;;;7.80;1.65;;;;;;;7.99;80.47;100780.91;5042524;28;20199;-90
2022/02/22 10:23:50;;;;;;;16.92;1.75;;;;;;;7.89;80.65;100787.53;5025790;28;20041;-92
2022/02/22 10:26:26;;;;;;;9.18;2.17;;;;;;;7.67;80.62;100807.03;5041843;28;20067;-91
2022/02/22 10:28:55;;;;;;;7.20;1.88;;;;;;;7.57;82.06;100799.06;5040963;28;20046;-94
2022/02/22 10:31:34;;;;;;;10.25;1.95;;;;;;;7.58;83.12;100783.34;5042189;28;20041;-89
2022/02/22 10:34:03;;;;;;;10.20;1.73;;;;;;;7.60;83.49;100790.16;5041716;28;20045;-94
2022/02/22 10:36:51;;;;;;;13.10;3.95;;;;;;;7.76;84.43;100793.22;5040562;28;20045;-91
2022/02/22 10:39:20;;;;;;;10.07;3.85;;;;;;;7.89;84.06;100803.28;5027313;28;20061;-91
2022/02/22 10:41:52;;;;;;;11.43;1.95;;;;;;;7.91;83.50;100801.84;5024416;28;20052;-92
2022/02/22 10:44:34;;;;;;;17.75;3.40;;;;;;;7.96;83.40;100809.94;5021319;28;20075;-89
2022/02/22 10:47:07;;;;;;;8.75;2.83;;;;;;;7.96;83.12;100803.59;5008312;28;20079;-90
2022/02/22 10:49:37;;;;;;;13.15;2.38;;;;;;;7.99;82.80;100812.00;5025310;28;20041;-91
2022/02/22 10:52:07;;;;;;;19.27;2.72;;;;;;;8.03;82.29;100808.59;5024489;28;20042;-93
2022/02/22 10:54:35;;;;;;;6.00;2.40;;;;;;;8.11;82.30;100829.84;5025165;28;20050;-91
2022/02/22 10:57:03;;;;;;;7.75;2.38;;;;;;;8.16;82.14;100824.16;5039992;28;20160;-89
2022/02/22 10:59:31;;;;;;;9.57;1.70;;;;;;;8.17;80.89;100825.78;5024143;28;20061;-90
2022/02/22 11:01:59;;;;;;;10.73;1.70;;;;;;;8.23;80.37;100838.28;5024341;28;20045;-89
2022/02/22 11:04:31;;;;;;;11.43;2.67;;;;;;;8.28;80.63;100836.19;5025617;28;20041;-89
2022/02/22 11:06:59;;;;;;;13.85;3.38;;;;;;;8.34;80.49;100842.34;5024788;28;20050;-90
2022/02/22 11:09:27;;;;;;;13.10;2.85;;;;;;;8.36;79.65;100848.34;5024288;28;21170;-84
2022/02/22 11:12:07;;;;;;;10.85;3.42;;;;;;;8.39;78.90;100850.44;5023734;28;20057;-90
2022/02/22 11:14:35;;;;;;;9.85;1.88;;;;;;;8.43;78.72;100852.22;5022615;28;20049;-88
2022/02/22 11:17:23;;;;;;;9.68;2.33;;;;;;;8.43;76.51;100856.91;5006628;28;20125;-88
2022/02/22 11:19:52;;;;;;;13.98;3.10;;;;;;;8.45;77.28;100849.13;5023004;28;20686;-88
2022/02/22 11:22:23;;;;;;;12.65;2.58;;;;;;;8.53;77.69;100845.53;5023442;28;20057;-89
2022/02/22 11:24:54;;;;;;;18.42;2.83;;;;;;;8.63;77.39;100861.72;5023678;28;20067;-87
2022/02/22 11:27:29;;;;;;;15.80;3.25;;;;;;;8.74;76.93;100851.94;5023579;28;20136;-89
2022/02/22 11:30:06;;;;;;;9.68;2.22;;;;;;;8.77;75.83;100858.75;5024074;28;20105;-89